Time;durP1;ratioP1;P1;durP2;ratioP2;P2;SDS_P1;SDS_P2;PMS_P1;PMS_P2;Temp;Humidity;BMP_temperature;BMP_pressure;BME280_temperature;BME280_humidity;BME280_pressure;Samples;Min_cycle;Max_cycle;Signal;HPM_P1;HPM_P2
2022/05/27 00:02:05;;;;;;;3.37;2.50;;;;;;;;;;4989619;28;20190;-61
2022/05/27 00:04:31;;;;;;;3.43;2.50;;;;;;;;;;4994110;28;20674;-61
2022/05/27 00:06:57;;;;;;;3.70;2.30;;;;;;;;;;4989331;28;20213;-62
2022/05/27 00:09:25;;;;;;;2.43;2.23;;;;;;;;;;4991124;28;20236;-61
2022/05/27 00:11:51;;;;;;;2.57;2.33;;;;;;;;;;4991172;28;20848;-61
2022/05/27 00:14:17;;;;;;;2.60;2.17;;;;;;;;;;4990557;28;20590;-60
2022/05/27 00:16:43;;;;;;;2.53;2.20;;;;;;;;;;4987932;28;20210;-61
2022/05/27 00:19:08;;;;;;;3.73;2.10;;;;;;;;;;4980903;28;20312;-61
2022/05/27 00:21:34;;;;;;;5.60;2.50;;;;;;;;;;4988545;28;20629;-61
2022/05/27 00:24:00;;;;;;;2.63;2.10;;;;;;;;;;4982064;28;20189;-60
2022/05/27 00:26:27;;;;;;;2.30;2.07;;;;;;;;;;4989360;28;20218;-61
2022/05/27 00:28:52;;;;;;;2.90;2.20;;;;;;;;;;4988126;28;20577;-61
2022/05/27 00:31:20;;;;;;;2.83;1.90;;;;;;;;;;4984835;28;20187;-62
2022/05/27 00:33:46;;;;;;;2.43;2.23;;;;;;;;;;4991358;28;20218;-62
2022/05/27 00:36:12;;;;;;;2.30;2.10;;;;;;;;;;4993926;28;20194;-61
2022/05/27 00:38:38;;;;;;;3.00;2.47;;;;;;;;;;4996072;28;20195;-61
2022/05/27 00:41:04;;;;;;;4.47;2.30;;;;;;;;;;4992856;28;20198;-61
2022/05/27 00:43:30;;;;;;;2.53;2.30;;;;;;;;;;4988060;28;20666;-61
2022/05/27 00:46:06;;;;;;;3.50;2.20;;;;;;;;;;4988745;28;20202;-62
2022/05/27 00:48:32;;;;;;;4.27;2.70;;;;;;;;;;4990859;28;20619;-62
2022/05/27 00:50:58;;;;;;;2.20;2.00;;;;;;;;;;4994878;28;20203;-61
2022/05/27 00:53:33;;;;;;;4.53;2.50;;;;;;;;;;4993791;28;20567;-62
2022/05/27 00:55:59;;;;;;;2.53;2.07;;;;;;;;;;5002478;28;20561;-61
2022/05/27 00:58:25;;;;;;;2.77;2.47;;;;;;;;;;5003267;28;20198;-61
2022/05/27 01:00:51;;;;;;;4.63;2.50;;;;;;;;;;4991160;28;20654;-61
2022/05/27 01:03:18;;;;;;;2.53;2.33;;;;;;;;;;4971151;28;20240;-61
2022/05/27 01:05:47;;;;;;;2.63;2.43;;;;;;;;;;4988299;28;20804;-61
2022/05/27 01:08:13;;;;;;;2.70;2.20;;;;;;;;;;4989927;28;20396;-61
2022/05/27 01:10:46;;;;;;;5.43;2.40;;;;;;;;;;4998560;28;20182;-61
2022/05/27 01:13:25;;;;;;;2.23;2.00;;;;;;;;;;4988008;28;20186;-60
2022/05/27 01:15:57;;;;;;;3.70;2.20;;;;;;;;;;4974765;28;20710;-61
2022/05/27 01:20:18;;;;;;;2.57;2.33;;;;;;;;;;4990474;28;20189;-62
2022/05/27 01:21:16;;;;;;;3.07;2.30;;;;;;;;;;4985579;28;20202;-61
2022/05/27 01:23:57;;;;;;;3.93;2.30;;;;;;;;;;4991803;28;20190;-61
2022/05/27 01:26:29;;;;;;;2.90;2.10;;;;;;;;;;4983484;28;20217;-62
2022/05/27 01:28:55;;;;;;;2.60;2.10;;;;;;;;;;4994857;28;20339;-61
2022/05/27 01:31:21;;;;;;;3.80;2.67;;;;;;;;;;4983553;28;20193;-62
2022/05/27 01:34:04;;;;;;;3.00;2.37;;;;;;;;;;4984405;28;20182;-61
2022/05/27 01:36:37;;;;;;;4.17;2.43;;;;;;;;;;4988326;28;20874;-62
2022/05/27 01:39:03;;;;;;;4.77;2.10;;;;;;;;;;4984699;28;20198;-61
2022/05/27 01:41:34;;;;;;;3.90;2.53;;;;;;;;;;4990250;28;20545;-62
2022/05/27 01:44:02;;;;;;;5.33;2.60;;;;;;;;;;4990700;28;20538;-62
2022/05/27 01:46:38;;;;;;;2.60;2.40;;;;;;;;;;4990218;28;20222;-62
2022/05/27 01:49:23;;;;;;;4.37;2.90;;;;;;;;;;4989976;28;20188;-61
2022/05/27 01:51:57;;;;;;;3.43;2.83;;;;;;;;;;4979147;28;20610;-61
2022/05/27 01:54:24;;;;;;;4.47;2.60;;;;;;;;;;4983023;28;20597;-61
2022/05/27 01:56:52;;;;;;;2.83;2.60;;;;;;;;;;4984349;28;20189;-61
2022/05/27 01:59:19;;;;;;;3.90;3.13;;;;;;;;;;4982866;28;20272;-62
2022/05/27 02:01:47;;;;;;;5.80;2.93;;;;;;;;;;4989137;28;20193;-61
2022/05/27 02:04:16;;;;;;;5.67;3.20;;;;;;;;;;4992470;28;20237;-61
2022/05/27 02:06:44;;;;;;;5.27;3.40;;;;;;;;;;4990886;28;20580;-61
2022/05/27 02:09:17;;;;;;;3.27;2.70;;;;;;;;;;4974659;28;20585;-61
2022/05/27 02:11:43;;;;;;;3.37;2.57;;;;;;;;;;4992346;28;20196;-62
2022/05/27 02:14:11;;;;;;;3.83;2.30;;;;;;;;;;4991276;28;20710;-61
2022/05/27 02:16:42;;;;;;;6.97;2.57;;;;;;;;;;4986156;28;20197;-61
2022/05/27 02:19:11;;;;;;;4.27;2.80;;;;;;;;;;4988013;28;20229;-61
2022/05/27 02:21:40;;;;;;;4.70;2.77;;;;;;;;;;4983097;28;20194;-61
2022/05/27 02:24:06;;;;;;;3.47;2.50;;;;;;;;;;4983617;28;20694;-61
2022/05/27 02:26:33;;;;;;;4.20;2.37;;;;;;;;;;4985339;28;20292;-61
2022/05/27 02:29:07;;;;;;;5.53;2.97;;;;;;;;;;4986646;28;20214;-61
2022/05/27 02:31:34;;;;;;;3.60;2.80;;;;;;;;;;4989842;28;20681;-61
2022/05/27 02:36:52;;;;;;;3.33;2.50;;;;;;;;;;4989812;28;20290;-60
2022/05/27 02:39:18;;;;;;;5.97;2.80;;;;;;;;;;4992914;28;20539;-60
2022/05/27 02:41:46;;;;;;;5.67;2.77;;;;;;;;;;4988913;28;20208;-61
2022/05/27 02:44:12;;;;;;;2.90;2.60;;;;;;;;;;4992524;28;20190;-61
2022/05/27 02:46:49;;;;;;;5.73;2.77;;;;;;;;;;4981885;28;20250;-61
2022/05/27 02:49:22;;;;;;;6.17;2.20;;;;;;;;;;4958636;28;20320;-62
2022/05/27 02:51:48;;;;;;;3.70;2.57;;;;;;;;;;4989367;28;20265;-61
2022/05/27 02:54:32;;;;;;;3.67;2.37;;;;;;;;;;4990769;28;20265;-61
2022/05/27 02:57:00;;;;;;;4.93;2.90;;;;;;;;;;4988933;28;20186;-62
2022/05/27 02:59:26;;;;;;;3.47;2.40;;;;;;;;;;4983004;28;20288;-62
2022/05/27 03:01:52;;;;;;;4.70;2.60;;;;;;;;;;4982500;28;20186;-61
2022/05/27 03:04:18;;;;;;;3.43;2.53;;;;;;;;;;4983405;28;20233;-61
2022/05/27 03:06:47;;;;;;;2.87;2.30;;;;;;;;;;4990374;28;20710;-61
2022/05/27 03:09:21;;;;;;;3.57;2.50;;;;;;;;;;4998398;28;20210;-61
2022/05/27 03:11:47;;;;;;;4.73;2.07;;;;;;;;;;4988154;28;20193;-61
2022/05/27 03:14:15;;;;;;;2.57;2.30;;;;;;;;;;4982350;28;20208;-61
2022/05/27 03:16:50;;;;;;;2.47;2.20;;;;;;;;;;4991402;28;20190;-61
2022/05/27 03:19:16;;;;;;;3.37;2.40;;;;;;;;;;4993171;28;20658;-61
2022/05/27 03:21:52;;;;;;;5.87;2.33;;;;;;;;;;4989239;28;20183;-61
2022/05/27 03:24:34;;;;;;;3.30;2.40;;;;;;;;;;4984513;28;22320;-61
2022/05/27 03:27:23;;;;;;;2.43;2.17;;;;;;;;;;4986477;28;20225;-61
2022/05/27 03:29:50;;;;;;;3.20;2.33;;;;;;;;;;4978930;28;20201;-61
2022/05/27 03:32:25;;;;;;;3.23;2.40;;;;;;;;;;4989807;28;20194;-61
2022/05/27 03:35:13;;;;;;;4.03;2.57;;;;;;;;;;4991893;28;20194;-61
2022/05/27 03:37:40;;;;;;;2.47;2.27;;;;;;;;;;4988824;28;20227;-61
2022/05/27 03:40:06;;;;;;;4.70;2.60;;;;;;;;;;4987458;28;20635;-62
2022/05/27 03:42:33;;;;;;;3.00;2.50;;;;;;;;;;4990076;28;20496;-60
2022/05/27 03:45:05;;;;;;;2.93;2.53;;;;;;;;;;4996608;28;20185;-61
2022/05/27 03:47:31;;;;;;;3.33;2.57;;;;;;;;;;4992097;28;20201;-62
2022/05/27 03:49:57;;;;;;;3.30;2.30;;;;;;;;;;4990559;28;20233;-61
2022/05/27 03:52:24;;;;;;;3.30;2.60;;;;;;;;;;4998058;28;20683;-61
2022/05/27 03:54:49;;;;;;;4.00;2.37;;;;;;;;;;5002627;28;20240;-61
2022/05/27 03:57:15;;;;;;;2.13;1.90;;;;;;;;;;4993497;28;20277;-61
2022/05/27 03:59:41;;;;;;;5.53;2.83;;;;;;;;;;4999994;28;20213;-60
2022/05/27 04:02:07;;;;;;;4.60;2.30;;;;;;;;;;4977793;28;21134;-61
2022/05/27 04:04:33;;;;;;;2.60;2.40;;;;;;;;;;4981162;28;20654;-61
2022/05/27 04:06:59;;;;;;;4.60;2.93;;;;;;;;;;4981315;28;20215;-61
2022/05/27 04:09:25;;;;;;;4.47;3.00;;;;;;;;;;4995434;28;20560;-60
2022/05/27 04:11:51;;;;;;;2.73;2.53;;;;;;;;;;4990638;28;20198;-60
2022/05/27 04:14:17;;;;;;;3.13;2.60;;;;;;;;;;4988965;28;20189;-61
2022/05/27 04:16:43;;;;;;;4.37;2.40;;;;;;;;;;4980692;28;20190;-61
2022/05/27 04:19:09;;;;;;;3.20;2.30;;;;;;;;;;4993559;28;20205;-61
2022/05/27 04:21:36;;;;;;;3.50;2.57;;;;;;;;;;4993560;28;20248;-61
2022/05/27 04:24:02;;;;;;;3.53;2.40;;;;;;;;;;4994487;28;20185;-61
2022/05/27 04:26:28;;;;;;;4.60;2.90;;;;;;;;;;4996050;28;20221;-62
2022/05/27 04:28:54;;;;;;;2.60;2.37;;;;;;;;;;5000526;28;20291;-61
2022/05/27 04:31:20;;;;;;;4.57;2.93;;;;;;;;;;4986683;28;20273;-61
2022/05/27 04:33:46;;;;;;;4.60;2.50;;;;;;;;;;4990889;28;20217;-61
2022/05/27 04:36:14;;;;;;;2.67;2.47;;;;;;;;;;4986678;28;20186;-61
2022/05/27 04:38:40;;;;;;;3.67;2.97;;;;;;;;;;4990167;28;20182;-61
2022/05/27 04:41:06;;;;;;;5.60;2.50;;;;;;;;;;4989964;28;20196;-61
2022/05/27 04:43:34;;;;;;;2.70;2.23;;;;;;;;;;4981416;28;20200;-62
2022/05/27 04:46:00;;;;;;;4.83;2.97;;;;;;;;;;4992951;28;20214;-61
2022/05/27 04:48:26;;;;;;;3.63;2.43;;;;;;;;;;5000893;28;20210;-62
2022/05/27 04:50:52;;;;;;;2.80;2.60;;;;;;;;;;4973233;28;21166;-62
2022/05/27 04:53:18;;;;;;;4.73;2.60;;;;;;;;;;4984385;28;20186;-62
2022/05/27 04:55:44;;;;;;;3.53;2.63;;;;;;;;;;4995611;28;20189;-63
2022/05/27 04:58:11;;;;;;;3.73;2.60;;;;;;;;;;4988009;28;20190;-62
2022/05/27 05:00:41;;;;;;;4.97;2.60;;;;;;;;;;4980001;28;20187;-62
2022/05/27 05:03:07;;;;;;;5.13;3.07;;;;;;;;;;4978821;28;20330;-63
2022/05/27 05:05:33;;;;;;;4.50;3.17;;;;;;;;;;4982540;28;20225;-62
2022/05/27 05:08:00;;;;;;;3.20;2.90;;;;;;;;;;4982018;28;20182;-62
2022/05/27 05:10:27;;;;;;;2.97;2.77;;;;;;;;;;4986702;28;20204;-62
2022/05/27 05:12:53;;;;;;;3.50;2.67;;;;;;;;;;4984816;28;20202;-62
2022/05/27 05:15:19;;;;;;;3.20;2.60;;;;;;;;;;4981989;28;20189;-63
2022/05/27 05:17:46;;;;;;;3.50;3.10;;;;;;;;;;4983819;28;20198;-62
2022/05/27 05:20:12;;;;;;;3.80;2.90;;;;;;;;;;4989031;28;20553;-63
2022/05/27 05:22:38;;;;;;;3.97;2.77;;;;;;;;;;4987880;28;20200;-62
2022/05/27 05:25:05;;;;;;;3.03;2.73;;;;;;;;;;4983182;28;20186;-62
2022/05/27 05:27:31;;;;;;;3.20;3.00;;;;;;;;;;4981840;28;20268;-62
2022/05/27 05:29:57;;;;;;;3.30;3.10;;;;;;;;;;4990917;28;20197;-63
2022/05/27 05:32:23;;;;;;;3.47;3.13;;;;;;;;;;4981558;28;20220;-62
2022/05/27 05:34:49;;;;;;;3.53;2.80;;;;;;;;;;4974184;28;20181;-62
2022/05/27 05:37:15;;;;;;;3.30;2.57;;;;;;;;;;4988359;28;20541;-62
2022/05/27 05:39:41;;;;;;;2.70;2.50;;;;;;;;;;4983412;28;20179;-62
2022/05/27 05:42:07;;;;;;;3.23;2.67;;;;;;;;;;4988483;28;20185;-62
2022/05/27 05:44:35;;;;;;;3.13;2.77;;;;;;;;;;4988432;28;20210;-63
2022/05/27 05:47:01;;;;;;;3.67;2.60;;;;;;;;;;4992406;28;20215;-62
2022/05/27 05:49:27;;;;;;;3.23;2.93;;;;;;;;;;4993854;28;20189;-62
2022/05/27 05:51:54;;;;;;;2.90;2.70;;;;;;;;;;4989788;28;20190;-63
2022/05/27 05:54:20;;;;;;;3.23;2.50;;;;;;;;;;4993878;28;20549;-62
2022/05/27 05:56:47;;;;;;;2.57;2.37;;;;;;;;;;4993414;28;20189;-63
2022/05/27 05:59:14;;;;;;;2.50;2.30;;;;;;;;;;4986619;28;20750;-63
2022/05/27 06:01:40;;;;;;;2.57;2.37;;;;;;;;;;4994167;28;20319;-63
2022/05/27 06:04:06;;;;;;;2.53;2.33;;;;;;;;;;4993315;28;21011;-62
2022/05/27 06:06:32;;;;;;;2.40;2.20;;;;;;;;;;4986911;28;20664;-63
2022/05/27 06:08:58;;;;;;;2.47;2.27;;;;;;;;;;4987501;28;20670;-63
2022/05/27 06:11:24;;;;;;;2.63;2.43;;;;;;;;;;4989097;28;20194;-62
2022/05/27 06:13:50;;;;;;;4.70;2.63;;;;;;;;;;4985556;28;20191;-62
2022/05/27 06:16:16;;;;;;;2.93;2.70;;;;;;;;;;4974227;28;20280;-62
2022/05/27 06:18:42;;;;;;;2.80;2.60;;;;;;;;;;4979252;28;20599;-63
2022/05/27 06:21:08;;;;;;;2.60;2.20;;;;;;;;;;4975431;28;20256;-63
2022/05/27 06:23:34;;;;;;;2.53;2.33;;;;;;;;;;4986266;28;20570;-63
2022/05/27 06:26:09;;;;;;;2.93;2.30;;;;;;;;;;4989705;28;20260;-63
2022/05/27 06:34:23;;;;;;;2.70;2.20;;;;;;;;;;4989152;28;20213;-62
2022/05/27 06:36:49;;;;;;;2.40;2.20;;;;;;;;;;4985077;28;20911;-62
2022/05/27 06:39:15;;;;;;;3.90;2.60;;;;;;;;;;4987722;28;20228;-63
2022/05/27 06:41:41;;;;;;;2.63;2.43;;;;;;;;;;4978481;28;20198;-63
2022/05/27 06:44:07;;;;;;;3.93;2.70;;;;;;;;;;4986583;28;20643;-64
2022/05/27 06:46:33;;;;;;;2.43;2.23;;;;;;;;;;4978192;28;20213;-64
2022/05/27 06:48:59;;;;;;;3.43;2.30;;;;;;;;;;4982797;28;20206;-63
2022/05/27 06:51:25;;;;;;;3.53;2.20;;;;;;;;;;4989244;28;20198;-63
2022/05/27 06:53:51;;;;;;;2.80;2.10;;;;;;;;;;4992570;28;20196;-63
2022/05/27 06:56:17;;;;;;;4.17;2.07;;;;;;;;;;4982751;28;20189;-63
2022/05/27 06:58:43;;;;;;;3.10;2.23;;;;;;;;;;4983224;28;20291;-63
2022/05/27 07:01:09;;;;;;;2.63;2.10;;;;;;;;;;4992004;28;20198;-63
2022/05/27 07:03:37;;;;;;;2.53;2.30;;;;;;;;;;4986646;28;21193;-63
2022/05/27 07:06:03;;;;;;;2.67;2.20;;;;;;;;;;4986641;28;20233;-63
2022/05/27 07:08:29;;;;;;;2.23;2.03;;;;;;;;;;4993753;28;20185;-64
2022/05/27 07:10:55;;;;;;;3.43;2.20;;;;;;;;;;4988416;28;20205;-64
2022/05/27 07:13:21;;;;;;;2.70;2.50;;;;;;;;;;4985823;28;20201;-63
2022/05/27 07:15:47;;;;;;;3.47;2.27;;;;;;;;;;4988252;28;20208;-63
2022/05/27 07:18:13;;;;;;;2.00;1.90;;;;;;;;;;4988675;28;20198;-63
2022/05/27 07:20:41;;;;;;;4.93;2.40;;;;;;;;;;4993154;28;20190;-63
2022/05/27 07:23:07;;;;;;;4.10;2.27;;;;;;;;;;4988580;28;20189;-63
2022/05/27 07:25:35;;;;;;;1.90;1.70;;;;;;;;;;4984914;28;20232;-63
2022/05/27 07:28:04;;;;;;;3.10;2.13;;;;;;;;;;4988613;28;20411;-63
2022/05/27 07:30:30;;;;;;;2.80;1.90;;;;;;;;;;4987996;28;20267;-62
2022/05/27 07:32:56;;;;;;;2.53;2.20;;;;;;;;;;4989430;28;20276;-63
2022/05/27 07:35:22;;;;;;;3.50;2.40;;;;;;;;;;4995088;28;20642;-63
2022/05/27 07:37:48;;;;;;;2.20;2.00;;;;;;;;;;4993198;28;20193;-62
2022/05/27 07:40:14;;;;;;;2.60;1.83;;;;;;;;;;4974865;28;20246;-62
2022/05/27 07:42:40;;;;;;;1.80;1.70;;;;;;;;;;4989980;28;20186;-63
2022/05/27 07:45:06;;;;;;;3.13;2.17;;;;;;;;;;4986693;28;20621;-62
2022/05/27 07:47:32;;;;;;;3.00;2.10;;;;;;;;;;4989331;28;20198;-63
2022/05/27 07:49:58;;;;;;;3.47;2.03;;;;;;;;;;4989218;28;20252;-63
2022/05/27 07:52:25;;;;;;;2.70;1.87;;;;;;;;;;4992476;28;20197;-63
2022/05/27 07:54:51;;;;;;;2.20;1.80;;;;;;;;;;4990178;28;20197;-64
2022/05/27 07:57:23;;;;;;;2.10;1.87;;;;;;;;;;4979746;28;20209;-63
2022/05/27 07:59:52;;;;;;;2.53;1.90;;;;;;;;;;4989040;28;20194;-63
2022/05/27 08:02:18;;;;;;;2.37;1.90;;;;;;;;;;4985374;28;20194;-63
2022/05/27 08:04:44;;;;;;;1.73;1.63;;;;;;;;;;4974678;28;20284;-63
2022/05/27 08:07:10;;;;;;;2.53;1.90;;;;;;;;;;4989678;28;20253;-64
2022/05/27 08:09:36;;;;;;;2.63;1.80;;;;;;;;;;4990515;28;20197;-63
2022/05/27 08:12:02;;;;;;;2.60;1.97;;;;;;;;;;4994058;28;20196;-63
2022/05/27 08:14:28;;;;;;;2.67;1.77;;;;;;;;;;4990799;28;20256;-63
2022/05/27 08:16:54;;;;;;;3.00;1.90;;;;;;;;;;4992071;28;20247;-63
2022/05/27 08:19:20;;;;;;;2.50;2.00;;;;;;;;;;4993311;28;20340;-63
2022/05/27 08:21:45;;;;;;;1.93;1.70;;;;;;;;;;4988885;28;20193;-63
2022/05/27 08:24:11;;;;;;;3.72;1.80;;;;;;;;;;4982876;28;20533;-62
2022/05/27 08:26:38;;;;;;;2.13;1.83;;;;;;;;;;4991777;28;21031;-63
2022/05/27 08:29:04;;;;;;;2.83;2.63;;;;;;;;;;4977786;28;20296;-63
2022/05/27 08:31:30;;;;;;;4.27;2.17;;;;;;;;;;4980063;28;20866;-63
2022/05/27 08:39:25;;;;;;;4.00;2.67;;;;;;;;;;4975633;28;20205;-63
2022/05/27 08:41:51;;;;;;;2.28;2.05;;;;;;;;;;4992322;28;20190;-63
2022/05/27 08:44:17;;;;;;;2.88;2.00;;;;;;;;;;4996408;28;20283;-63
2022/05/27 08:47:01;;;;;;;3.67;2.70;;;;;;;;;;4987227;28;20750;-58
2022/05/27 08:49:28;;;;;;;4.90;2.50;;;;;;;;;;4976281;28;20837;-63
2022/05/27 08:52:00;;;;;;;4.13;2.30;;;;;;;;;;4976420;28;20228;-63
2022/05/27 08:54:43;;;;;;;3.45;2.50;;;;;;;;;;4990546;28;20651;-63
2022/05/27 08:59:56;;;;;;;3.45;1.90;;;;;;;;;;4990479;28;20280;-63
2022/05/27 09:02:32;;;;;;;3.53;2.30;;;;;;;;;;4989167;28;20648;-63
2022/05/27 09:05:18;;;;;;;2.72;2.47;;;;;;;;;;4987891;28;20234;-63
2022/05/27 09:07:47;;;;;;;4.38;2.10;;;;;;;;;;4974467;28;20667;-62
2022/05/27 09:10:14;;;;;;;2.92;2.35;;;;;;;;;;4978223;28;21276;-63
2022/05/27 09:12:45;;;;;;;3.90;2.33;;;;;;;;;;4995292;28;20535;-63
2022/05/27 09:15:22;;;;;;;5.03;2.45;;;;;;;;;;4975951;28;20239;-63
2022/05/27 09:18:06;;;;;;;3.60;1.98;;;;;;;;;;4982385;28;20342;-63
2022/05/27 09:20:36;;;;;;;4.55;2.30;;;;;;;;;;4988056;28;20217;-63
2022/05/27 09:23:09;;;;;;;2.70;2.10;;;;;;;;;;4992862;28;20181;-63
2022/05/27 09:25:35;;;;;;;3.63;2.10;;;;;;;;;;4988240;28;20273;-63
2022/05/27 09:28:22;;;;;;;4.00;2.17;;;;;;;;;;4990653;28;20211;-63
2022/05/27 09:30:50;;;;;;;4.65;2.30;;;;;;;;;;4983464;28;20528;-63
2022/05/27 09:33:17;;;;;;;4.55;2.22;;;;;;;;;;4997543;28;20865;-63
2022/05/27 09:35:51;;;;;;;2.75;2.15;;;;;;;;;;4996040;28;20653;-63
2022/05/27 09:38:30;;;;;;;3.50;2.28;;;;;;;;;;4978264;28;20185;-62
2022/05/27 09:40:57;;;;;;;4.18;2.30;;;;;;;;;;4991777;28;20178;-62
2022/05/27 09:43:32;;;;;;;2.70;2.22;;;;;;;;;;4975097;28;20182;-63
2022/05/27 09:46:02;;;;;;;2.88;2.60;;;;;;;;;;4990453;28;20216;-63
2022/05/27 09:48:28;;;;;;;4.00;2.80;;;;;;;;;;4991286;28;20204;-62
2022/05/27 09:50:55;;;;;;;3.63;2.60;;;;;;;;;;4982417;28;20182;-63
2022/05/27 09:53:23;;;;;;;3.75;2.10;;;;;;;;;;4993258;28;20202;-63
2022/05/27 09:55:50;;;;;;;3.30;2.50;;;;;;;;;;4987775;28;20189;-63
2022/05/27 09:58:23;;;;;;;3.45;2.80;;;;;;;;;;4995485;28;20209;-63
2022/05/27 10:00:49;;;;;;;3.65;2.78;;;;;;;;;;4989141;28;20193;-61
2022/05/27 10:03:34;;;;;;;2.67;2.30;;;;;;;;;;4990729;28;20876;-62
2022/05/27 10:06:01;;;;;;;3.80;2.30;;;;;;;;;;4987035;28;20217;-62
2022/05/27 10:08:28;;;;;;;3.47;2.33;;;;;;;;;;4984031;28;20635;-62
2022/05/27 10:11:13;;;;;;;3.10;2.20;;;;;;;;;;4989452;28;20218;-62
2022/05/27 10:13:41;;;;;;;6.78;2.33;;;;;;;;;;4989639;28;20550;-62
2022/05/27 10:16:24;;;;;;;3.92;2.03;;;;;;;;;;4987429;28;20549;-61
2022/05/27 10:18:51;;;;;;;2.75;2.30;;;;;;;;;;4986811;28;20197;-62
2022/05/27 10:21:17;;;;;;;4.50;2.30;;;;;;;;;;4988460;28;20277;-61
2022/05/27 10:23:43;;;;;;;2.67;2.15;;;;;;;;;;4978730;28;20199;-61
2022/05/27 10:26:29;;;;;;;4.90;2.10;;;;;;;;;;4987683;28;20320;-62
2022/05/27 10:28:56;;;;;;;3.60;2.42;;;;;;;;;;4970319;28;20220;-62
2022/05/27 10:31:24;;;;;;;2.92;2.00;;;;;;;;;;4977293;28;20182;-61
2022/05/27 10:33:50;;;;;;;2.85;2.10;;;;;;;;;;4992615;28;20651;-62
2022/05/27 10:36:24;;;;;;;3.75;2.20;;;;;;;;;;4994540;28;20192;-62
2022/05/27 10:38:53;;;;;;;5.25;1.80;;;;;;;;;;4996075;28;20209;-62
2022/05/27 10:41:22;;;;;;;3.70;1.92;;;;;;;;;;4998247;28;20190;-62
2022/05/27 10:44:07;;;;;;;5.93;2.40;;;;;;;;;;4999529;28;20183;-62
2022/05/27 10:46:48;;;;;;;3.30;2.10;;;;;;;;;;5003393;28;20213;-61
2022/05/27 10:49:23;;;;;;;2.80;1.77;;;;;;;;;;5006573;28;20194;-61
2022/05/27 10:51:52;;;;;;;3.10;2.00;;;;;;;;;;5002232;28;20189;-61
2022/05/27 10:54:37;;;;;;;4.88;2.00;;;;;;;;;;4996396;28;20726;-61
2022/05/27 11:03:04;;;;;;;4.95;1.90;;;;;;;;;;4991639;28;20253;-61
2022/05/27 11:05:44;;;;;;;6.20;2.13;;;;;;;;;;4994423;28;20199;-61
2022/05/27 11:08:26;;;;;;;6.13;2.28;;;;;;;;;;4997171;28;20184;-61
2022/05/27 11:11:10;;;;;;;5.55;2.10;;;;;;;;;;4997385;28;20204;-61
2022/05/27 11:16:53;;;;;;;2.28;1.90;;;;;;;;;;5002903;28;20196;-61
2022/05/27 11:19:24;;;;;;;3.10;1.90;;;;;;;;;;4996525;28;20244;-61
2022/05/27 11:21:50;;;;;;;3.22;2.15;;;;;;;;;;5003525;28;20190;-61
2022/05/27 11:24:16;;;;;;;2.85;1.70;;;;;;;;;;5000233;28;20185;-61
2022/05/27 11:26:55;;;;;;;5.10;2.55;;;;;;;;;;5000785;28;20345;-61
2022/05/27 11:29:42;;;;;;;3.83;2.40;;;;;;;;;;5000862;28;20178;-61
2022/05/27 11:32:11;;;;;;;4.28;1.63;;;;;;;;;;4977598;28;20216;-61
2022/05/27 11:34:44;;;;;;;4.10;1.83;;;;;;;;;;4995988;28;20182;-62
2022/05/27 11:37:25;;;;;;;2.95;2.10;;;;;;;;;;4995352;28;20209;-61
2022/05/27 11:39:58;;;;;;;3.13;2.00;;;;;;;;;;4999885;28;20192;-61
2022/05/27 11:42:44;;;;;;;3.55;2.22;;;;;;;;;;5000809;28;20190;-61
2022/05/27 11:45:21;;;;;;;3.85;2.15;;;;;;;;;;4998852;28;20486;-61
2022/05/27 11:47:47;;;;;;;3.17;2.17;;;;;;;;;;4997148;28;20228;-61
2022/05/27 11:50:16;;;;;;;3.03;2.40;;;;;;;;;;4992751;28;20186;-61
2022/05/27 11:52:45;;;;;;;4.68;1.92;;;;;;;;;;4997402;28;20194;-61
2022/05/27 11:55:22;;;;;;;2.95;1.85;;;;;;;;;;5002753;28;20183;-61
2022/05/27 11:58:09;;;;;;;3.92;1.77;;;;;;;;;;5005795;28;20239;-61
2022/05/27 12:00:42;;;;;;;4.15;1.95;;;;;;;;;;4990095;28;20194;-61
2022/05/27 12:03:18;;;;;;;4.72;2.05;;;;;;;;;;5003809;28;20222;-61
2022/05/27 12:05:46;;;;;;;3.40;2.00;;;;;;;;;;4999464;28;20217;-61
2022/05/27 12:08:30;;;;;;;5.07;2.33;;;;;;;;;;4999064;28;20527;-61
2022/05/27 12:11:07;;;;;;;5.28;1.80;;;;;;;;;;4999381;28;20252;-60
2022/05/27 12:13:35;;;;;;;3.95;1.65;;;;;;;;;;5006978;28;20282;-61
2022/05/27 12:16:06;;;;;;;2.97;1.85;;;;;;;;;;4998620;28;20632;-61
2022/05/27 12:18:34;;;;;;;3.83;2.00;;;;;;;;;;5005008;28;20737;-61
2022/05/27 12:21:01;;;;;;;2.75;1.70;;;;;;;;;;5000850;28;20192;-60
2022/05/27 12:23:28;;;;;;;3.25;1.60;;;;;;;;;;4992705;28;20201;-61
2022/05/27 12:25:54;;;;;;;3.00;2.05;;;;;;;;;;4997260;28;20220;-61
2022/05/27 12:28:27;;;;;;;3.15;2.20;;;;;;;;;;5002396;28;20206;-61
2022/05/27 12:30:54;;;;;;;5.65;2.50;;;;;;;;;;4989406;28;20199;-61
2022/05/27 12:33:21;;;;;;;3.90;2.10;;;;;;;;;;4996000;28;20185;-61
2022/05/27 12:36:06;;;;;;;5.28;2.22;;;;;;;;;;4999919;28;20179;-61
2022/05/27 12:38:35;;;;;;;4.35;2.28;;;;;;;;;;4990191;28;20302;-61
2022/05/27 12:41:05;;;;;;;4.07;2.13;;;;;;;;;;5000447;28;20193;-60
2022/05/27 12:43:36;;;;;;;3.65;2.17;;;;;;;;;;4998208;28;20214;-61
2022/05/27 12:46:02;;;;;;;2.72;2.10;;;;;;;;;;4997867;28;20197;-61
2022/05/27 12:48:29;;;;;;;2.40;2.20;;;;;;;;;;4996915;28;20599;-61
2022/05/27 12:50:56;;;;;;;3.90;2.30;;;;;;;;;;5002557;28;20190;-60
2022/05/27 12:53:34;;;;;;;4.63;3.08;;;;;;;;;;4990715;28;20208;-61
2022/05/27 13:02:16;;;;;;;6.90;2.33;;;;;;;;;;4926896;28;20258;-61
2022/05/27 13:04:55;;;;;;;5.90;2.25;;;;;;;;;;4988262;28;20245;-60
2022/05/27 13:07:33;;;;;;;2.85;2.20;;;;;;;;;;4989838;28;20244;-60
2022/05/27 13:10:18;;;;;;;5.10;2.53;;;;;;;;;;4997780;28;20272;-61
2022/05/27 13:12:47;;;;;;;5.00;2.35;;;;;;;;;;5003834;28;20214;-61
2022/05/27 13:15:13;;;;;;;4.20;2.63;;;;;;;;;;5005214;28;20174;-61
2022/05/27 13:17:43;;;;;;;4.35;2.45;;;;;;;;;;5002874;28;20192;-61
2022/05/27 13:20:09;;;;;;;3.60;2.28;;;;;;;;;;4999802;28;20185;-61
2022/05/27 13:22:36;;;;;;;3.38;2.13;;;;;;;;;;4992729;28;20248;-61
2022/05/27 13:25:24;;;;;;;4.10;2.28;;;;;;;;;;4979342;28;20221;-61
2022/05/27 13:27:49;;;;;;;4.30;2.22;;;;;;;;;;4980525;28;20511;-61
2022/05/27 13:30:15;;;;;;;5.72;2.80;;;;;;;;;;4982656;28;20199;-59
2022/05/27 13:32:57;;;;;;;5.15;3.05;;;;;;;;;;4974940;28;20189;-58
2022/05/27 13:35:23;;;;;;;8.65;3.22;;;;;;;;;;4980947;28;20353;-59
2022/05/27 13:37:51;;;;;;;7.80;3.28;;;;;;;;;;4990171;28;20195;-59
2022/05/27 13:40:21;;;;;;;9.50;3.42;;;;;;;;;;4989930;28;20186;-59
2022/05/27 13:42:51;;;;;;;7.90;3.03;;;;;;;;;;4985621;28;20595;-59
2022/05/27 13:45:35;;;;;;;7.18;3.60;;;;;;;;;;4985489;28;20198;-59
2022/05/27 13:48:05;;;;;;;5.00;3.22;;;;;;;;;;4985274;28;20207;-59
2022/05/27 13:50:35;;;;;;;6.15;2.90;;;;;;;;;;4970604;28;20316;-59
2022/05/27 13:53:20;;;;;;;5.07;2.90;;;;;;;;;;4981723;28;20675;-58
2022/05/27 13:55:46;;;;;;;6.85;3.30;;;;;;;;;;4982035;28;20190;-59
2022/05/27 13:58:12;;;;;;;7.47;3.40;;;;;;;;;;4985079;28;20195;-58
2022/05/27 14:00:40;;;;;;;9.23;3.40;;;;;;;;;;4969446;28;20192;-58
2022/05/27 14:03:06;;;;;;;4.88;3.42;;;;;;;;;;4972236;28;20261;-58
2022/05/27 14:05:32;;;;;;;5.53;3.20;;;;;;;;;;4987455;28;20267;-56
2022/05/27 14:08:00;;;;;;;7.45;3.80;;;;;;;;;;4988836;28;20640;-59
2022/05/27 14:10:40;;;;;;;5.97;3.30;;;;;;;;;;4990427;28;20190;-57
2022/05/27 14:13:16;;;;;;;4.97;3.05;;;;;;;;;;4991979;28;20193;-57
2022/05/27 14:15:42;;;;;;;7.55;3.70;;;;;;;;;;4996930;28;20181;-58
2022/05/27 14:18:08;;;;;;;4.97;3.60;;;;;;;;;;4994511;28;20189;-57
2022/05/27 14:23:26;;;;;;;8.07;3.90;;;;;;;;;;4992482;28;20225;-58
2022/05/27 14:25:59;;;;;;;5.57;3.40;;;;;;;;;;4988960;28;20217;-56
2022/05/27 14:28:39;;;;;;;5.93;3.30;;;;;;;;;;4990214;28;20806;-56
2022/05/27 14:31:09;;;;;;;4.68;3.70;;;;;;;;;;4988981;28;20194;-57
2022/05/27 14:33:39;;;;;;;7.40;3.53;;;;;;;;;;4994998;28;20193;-58
2022/05/27 14:36:06;;;;;;;7.88;3.28;;;;;;;;;;4994811;28;20205;-57
2022/05/27 14:38:34;;;;;;;6.13;3.72;;;;;;;;;;4982987;28;20186;-57
2022/05/27 14:41:00;;;;;;;7.63;4.93;;;;;;;;;;4976240;28;20193;-58
2022/05/27 14:43:36;;;;;;;7.82;3.97;;;;;;;;;;4967560;28;20189;-58
2022/05/27 14:46:12;;;;;;;5.32;3.33;;;;;;;;;;4972907;28;21236;-59
2022/05/27 14:48:38;;;;;;;7.82;3.13;;;;;;;;;;4961510;28;20575;-60
2022/05/27 14:51:23;;;;;;;6.30;2.38;;;;;;;;;;4981828;28;20715;-60
2022/05/27 14:53:49;;;;;;;7.70;3.60;;;;;;;;;;4980217;28;20178;-59
2022/05/27 14:56:23;;;;;;;5.43;2.70;;;;;;;;;;4973565;28;20193;-59
2022/05/27 14:58:49;;;;;;;9.18;3.65;;;;;;;;;;4980257;28;20181;-60
2022/05/27 15:01:18;;;;;;;5.57;2.55;;;;;;;;;;4978494;28;20190;-59
2022/05/27 15:03:44;;;;;;;7.45;3.13;;;;;;;;;;4974374;28;20229;-59
2022/05/27 15:06:13;;;;;;;8.38;3.05;;;;;;;;;;4979716;28;20210;-58
2022/05/27 15:08:39;;;;;;;8.07;3.25;;;;;;;;;;4980424;28;20178;-59
2022/05/27 15:11:12;;;;;;;6.18;3.30;;;;;;;;;;4988095;28;20679;-59
2022/05/27 15:13:47;;;;;;;6.97;3.00;;;;;;;;;;4982804;28;20192;-59
2022/05/27 15:16:14;;;;;;;6.75;3.08;;;;;;;;;;4985844;28;20189;-58
2022/05/27 15:18:47;;;;;;;5.95;2.97;;;;;;;;;;4984634;28;20550;-59
2022/05/27 15:21:15;;;;;;;7.35;3.50;;;;;;;;;;4988990;28;20269;-58
2022/05/27 15:23:41;;;;;;;6.28;3.33;;;;;;;;;;4987677;28;20268;-58
2022/05/27 15:34:27;;;;;;;5.38;2.80;;;;;;;;;;4978201;28;20212;-59
2022/05/27 15:36:53;;;;;;;5.60;2.78;;;;;;;;;;4989197;28;20428;-59
2022/05/27 15:39:19;;;;;;;6.65;2.55;;;;;;;;;;4983110;28;20190;-59
2022/05/27 15:41:45;;;;;;;8.48;3.22;;;;;;;;;;4987643;28;20189;-59